createdAt,value
2022-08-31T00:00:21.906Z,79.10
2022-08-31T00:03:07.149Z,79.10
2022-08-31T00:05:33.983Z,79.30
2022-08-31T00:08:00.770Z,79.30
2022-08-31T00:10:32.448Z,79.40
2022-08-31T00:13:03.729Z,79.50
2022-08-31T00:15:30.842Z,79.50
2022-08-31T00:17:57.871Z,79.60
2022-08-31T00:20:32.836Z,79.70
2022-08-31T00:23:01.666Z,79.70
2022-08-31T00:25:28.529Z,79.90
2022-08-31T00:27:55.894Z,79.90
2022-08-31T00:30:23.345Z,80.00
2022-08-31T00:32:50.301Z,80.10
2022-08-31T00:35:17.212Z,80.20
2022-08-31T00:37:44.148Z,80.20
2022-08-31T00:40:11.543Z,80.20
2022-08-31T00:42:38.479Z,80.30
2022-08-31T00:45:05.795Z,80.50
2022-08-31T00:47:32.619Z,80.50
2022-08-31T00:49:59.436Z,80.50
2022-08-31T00:52:37.695Z,80.70
2022-08-31T00:55:10.124Z,80.80
2022-08-31T00:57:38.328Z,80.80
2022-08-31T01:00:08.042Z,80.90
2022-08-31T01:02:34.885Z,81.00
2022-08-31T01:05:01.837Z,81.10
2022-08-31T01:07:28.842Z,81.20
2022-08-31T01:09:56.175Z,81.20
2022-08-31T01:12:23.430Z,81.30
2022-08-31T01:14:50.175Z,81.40
2022-08-31T01:17:17.654Z,81.40
2022-08-31T01:19:57.821Z,82.00
2022-08-31T01:22:57.104Z,81.60
2022-08-31T01:25:23.917Z,81.60
2022-08-31T01:28:00.232Z,81.50
2022-08-31T01:30:27.123Z,81.60
2022-08-31T01:32:53.954Z,81.60
2022-08-31T01:35:20.873Z,81.70
2022-08-31T01:37:47.865Z,81.80
2022-08-31T01:40:14.687Z,81.90
2022-08-31T01:42:41.565Z,82.00
2022-08-31T01:45:09.121Z,82.00
2022-08-31T01:47:36.041Z,82.00
2022-08-31T01:50:02.796Z,82.10
2022-08-31T01:52:34.163Z,82.10
2022-08-31T01:55:03.493Z,82.20
2022-08-31T01:57:33.949Z,82.20
2022-08-31T02:00:06.281Z,82.30
2022-08-31T02:02:33.188Z,82.40
2022-08-31T02:05:00.137Z,82.40
2022-08-31T02:07:27.058Z,82.50
2022-08-31T02:09:54.653Z,82.70
2022-08-31T02:12:21.511Z,82.60
2022-08-31T02:14:48.465Z,82.60
2022-08-31T02:17:15.398Z,82.60
2022-08-31T02:19:42.183Z,82.70
2022-08-31T02:22:09.076Z,82.70
2022-08-31T02:24:35.889Z,82.80
2022-08-31T02:27:02.758Z,82.70
2022-08-31T02:29:29.648Z,82.80
2022-08-31T02:31:58.540Z,82.90
2022-08-31T02:34:25.632Z,82.90
2022-08-31T02:36:52.605Z,82.90
2022-08-31T02:39:19.453Z,82.90
2022-08-31T02:41:46.394Z,83.00
2022-08-31T02:44:13.375Z,83.10
2022-08-31T02:46:40.327Z,83.10
2022-08-31T02:49:07.135Z,83.10
2022-08-31T02:51:34.194Z,83.20
2022-08-31T02:54:01.008Z,83.90
2022-08-31T02:56:30.075Z,83.40
2022-08-31T02:58:56.789Z,83.40
2022-08-31T03:01:23.952Z,83.50
2022-08-31T03:03:50.939Z,83.50
2022-08-31T03:06:18.004Z,83.60
2022-08-31T03:08:44.914Z,83.50
2022-08-31T03:11:11.921Z,83.60
2022-08-31T03:13:38.916Z,83.70
2022-08-31T03:16:06.472Z,83.80
2022-08-31T03:18:33.747Z,83.80
2022-08-31T03:21:00.624Z,83.90
2022-08-31T03:23:27.444Z,84.00
2022-08-31T03:25:54.182Z,84.00
2022-08-31T03:28:21.028Z,84.00
2022-08-31T03:30:48.162Z,84.10
2022-08-31T03:33:14.989Z,84.10
2022-08-31T03:35:44.100Z,84.10
2022-08-31T03:38:12.750Z,84.20
2022-08-31T03:40:40.880Z,84.20
2022-08-31T03:43:11.685Z,84.30
2022-08-31T03:45:40.138Z,84.30
2022-08-31T03:48:12.010Z,84.30
2022-08-31T03:50:39.492Z,84.30
2022-08-31T03:53:07.496Z,84.30
2022-08-31T03:55:34.738Z,84.40
2022-08-31T03:58:01.619Z,84.40
2022-08-31T04:00:28.632Z,84.40
2022-08-31T04:02:57.412Z,84.50
2022-08-31T04:05:24.351Z,84.50
2022-08-31T04:07:51.737Z,84.60
2022-08-31T04:10:18.654Z,84.50
2022-08-31T04:12:45.463Z,84.70
2022-08-31T04:15:12.354Z,84.70
2022-08-31T04:17:39.056Z,84.60
2022-08-31T04:20:07.256Z,84.60
2022-08-31T04:22:34.113Z,84.60
2022-08-31T04:25:00.941Z,84.50
2022-08-31T04:27:29.302Z,84.60
2022-08-31T04:29:56.164Z,84.50
2022-08-31T04:32:22.966Z,84.50
2022-08-31T04:34:56.390Z,84.50
2022-08-31T04:37:23.658Z,84.40
2022-08-31T04:39:52.101Z,84.30
2022-08-31T04:42:19.488Z,84.30
2022-08-31T04:44:46.428Z,84.10
2022-08-31T04:47:13.275Z,84.10
2022-08-31T04:49:40.054Z,84.00
2022-08-31T04:52:08.419Z,83.90
2022-08-31T04:54:35.259Z,83.90
2022-08-31T04:57:02.056Z,84.00
2022-08-31T04:59:28.942Z,83.90
2022-08-31T05:01:55.978Z,83.90
2022-08-31T05:04:24.683Z,84.00
2022-08-31T05:06:51.576Z,84.00
2022-08-31T05:09:20.303Z,84.00
2022-08-31T05:11:47.355Z,84.00
2022-08-31T05:14:14.392Z,84.10
2022-08-31T05:16:41.886Z,84.10
2022-08-31T05:19:08.787Z,84.20
2022-08-31T05:21:37.562Z,84.30
2022-08-31T05:24:06.713Z,84.30
2022-08-31T05:26:37.326Z,84.30
2022-08-31T05:29:09.171Z,84.30
2022-08-31T05:31:39.641Z,84.30
2022-08-31T05:34:12.491Z,84.30
2022-08-31T05:36:40.049Z,84.30
2022-08-31T05:39:09.375Z,84.30
2022-08-31T05:41:36.326Z,84.30
2022-08-31T05:44:03.806Z,84.30
2022-08-31T05:46:31.152Z,84.30
2022-08-31T05:48:57.949Z,84.30
2022-08-31T05:51:24.710Z,84.30
2022-08-31T05:53:51.692Z,84.30
2022-08-31T05:56:20.479Z,84.30
2022-08-31T05:58:48.072Z,84.40
2022-08-31T06:01:26.350Z,84.40
2022-08-31T06:03:57.046Z,84.50
2022-08-31T06:06:24.360Z,84.40
2022-08-31T06:08:53.904Z,85.00
2022-08-31T06:11:26.480Z,84.40
2022-08-31T06:13:54.246Z,84.20
2022-08-31T06:16:21.260Z,84.10
2022-08-31T06:18:50.737Z,84.00
2022-08-31T06:21:26.184Z,84.00
2022-08-31T06:23:54.274Z,83.90
2022-08-31T06:26:22.050Z,83.90
2022-08-31T06:28:50.869Z,83.80
2022-08-31T06:31:27.828Z,83.80
2022-08-31T06:33:55.898Z,83.80
2022-08-31T06:36:25.698Z,83.80
2022-08-31T06:38:53.365Z,83.80
2022-08-31T06:41:23.295Z,83.70
2022-08-31T06:43:50.381Z,83.70
2022-08-31T06:46:17.737Z,83.70
2022-08-31T06:48:45.063Z,83.50
2022-08-31T06:51:12.319Z,83.40
2022-08-31T06:53:42.940Z,83.40
2022-08-31T06:56:16.523Z,83.40
2022-08-31T06:58:53.452Z,83.20
2022-08-31T07:01:35.519Z,83.80
2022-08-31T07:04:05.009Z,83.10
2022-08-31T07:06:41.488Z,82.90
2022-08-31T07:09:11.317Z,82.90
2022-08-31T07:11:44.114Z,82.70
2022-08-31T07:14:12.856Z,82.60
2022-08-31T07:16:40.071Z,82.50
2022-08-31T07:19:07.075Z,82.40
2022-08-31T07:21:39.254Z,82.30
2022-08-31T07:24:06.657Z,82.10
2022-08-31T07:26:54.517Z,82.00
2022-08-31T07:29:21.995Z,81.70
2022-08-31T07:31:49.251Z,81.60
2022-08-31T07:34:28.006Z,81.50
2022-08-31T07:37:14.754Z,81.60
2022-08-31T07:40:07.119Z,81.40
2022-08-31T07:42:37.250Z,81.30
2022-08-31T07:45:05.608Z,81.20
2022-08-31T07:47:33.472Z,81.10
2022-08-31T07:50:01.045Z,80.90
2022-08-31T07:52:31.975Z,80.90
2022-08-31T07:55:13.511Z,80.70
2022-08-31T07:57:54.005Z,80.50
2022-08-31T08:00:26.939Z,80.40
2022-08-31T08:02:59.347Z,80.30
2022-08-31T08:05:29.184Z,80.20
2022-08-31T08:07:58.621Z,80.00
2022-08-31T08:10:27.600Z,79.80
2022-08-31T08:12:57.340Z,79.70
2022-08-31T08:15:26.715Z,79.40
2022-08-31T08:17:53.595Z,79.20
2022-08-31T08:20:30.638Z,78.80
2022-08-31T08:23:18.503Z,78.70
2022-08-31T08:25:58.142Z,78.40
2022-08-31T08:28:42.594Z,78.20
2022-08-31T08:31:14.580Z,78.00
2022-08-31T08:33:41.367Z,77.80
2022-08-31T08:36:11.580Z,77.60
2022-08-31T08:38:40.003Z,77.30
2022-08-31T08:41:15.341Z,77.10
2022-08-31T08:43:52.226Z,76.80
2022-08-31T08:46:34.877Z,76.40
2022-08-31T08:49:31.262Z,76.20
2022-08-31T08:52:04.229Z,76.00
2022-08-31T08:54:33.329Z,75.80
2022-08-31T08:57:01.628Z,75.60
2022-08-31T08:59:29.105Z,75.50
2022-08-31T09:02:02.118Z,75.20
2022-08-31T09:04:45.645Z,74.90
2022-08-31T09:07:54.276Z,74.70
2022-08-31T09:10:39.326Z,74.70
2022-08-31T09:13:26.004Z,74.50
2022-08-31T09:15:52.915Z,74.80
2022-08-31T09:18:42.387Z,74.10
2022-08-31T09:21:38.864Z,73.60
2022-08-31T09:24:14.064Z,73.50
2022-08-31T09:26:58.391Z,73.30
2022-08-31T09:29:30.233Z,73.10
2022-08-31T09:32:26.268Z,72.90
2022-08-31T09:35:09.259Z,72.70
2022-08-31T09:37:48.647Z,72.20
2022-08-31T09:40:37.252Z,71.90
2022-08-31T09:43:08.371Z,71.60
2022-08-31T09:45:42.318Z,71.30
2022-08-31T09:48:09.387Z,71.10
2022-08-31T09:50:46.615Z,71.00
2022-08-31T09:53:44.152Z,71.00
2022-08-31T09:56:16.754Z,70.60
2022-08-31T09:59:13.621Z,69.60
2022-08-31T10:01:43.316Z,68.20
2022-08-31T10:04:19.097Z,67.50
2022-08-31T10:07:14.273Z,67.30
2022-08-31T10:09:57.652Z,67.10
2022-08-31T10:12:27.845Z,66.30
2022-08-31T10:15:05.584Z,66.00
2022-08-31T10:17:47.148Z,65.80
2022-08-31T10:20:21.703Z,65.60
2022-08-31T10:22:52.469Z,65.30
2022-08-31T10:25:23.767Z,65.00
2022-08-31T10:28:15.293Z,64.60
2022-08-31T10:30:52.427Z,64.50
2022-08-31T10:33:50.523Z,64.80
2022-08-31T10:36:18.004Z,64.90
2022-08-31T10:38:47.691Z,64.50
2022-08-31T10:41:28.262Z,63.90
2022-08-31T10:44:06.337Z,63.50
2022-08-31T10:46:35.447Z,63.40
2022-08-31T10:49:04.575Z,63.40
2022-08-31T10:51:51.064Z,63.20
2022-08-31T10:54:50.177Z,62.80
2022-08-31T10:57:42.188Z,62.50
2022-08-31T11:00:35.648Z,62.20
2022-08-31T11:03:24.880Z,62.30
2022-08-31T11:05:59.221Z,61.70
2022-08-31T11:08:49.837Z,61.00
2022-08-31T11:11:43.674Z,59.90
2022-08-31T11:14:14.774Z,58.90
2022-08-31T11:16:49.369Z,58.10
2022-08-31T11:19:28.362Z,57.90
2022-08-31T11:22:28.636Z,58.30
2022-08-31T11:25:18.139Z,58.40
2022-08-31T11:28:12.541Z,58.90
2022-08-31T11:30:50.061Z,59.50
2022-08-31T11:33:21.470Z,60.00
2022-08-31T11:36:05.465Z,60.10
2022-08-31T11:39:01.855Z,60.10
2022-08-31T11:41:33.269Z,60.50
2022-08-31T11:44:04.627Z,60.80
2022-08-31T11:46:34.951Z,61.50
2022-08-31T11:49:01.887Z,60.90
2022-08-31T11:51:41.537Z,60.80
2022-08-31T11:54:16.087Z,60.80
2022-08-31T11:56:44.449Z,60.30
2022-08-31T11:59:26.360Z,59.20
2022-08-31T12:01:58.215Z,57.70
2022-08-31T12:04:43.410Z,56.50
2022-08-31T12:07:11.217Z,55.70
2022-08-31T12:10:17.573Z,55.60
2022-08-31T12:13:20.428Z,55.60
2022-08-31T12:16:06.963Z,55.80
2022-08-31T12:18:58.742Z,56.50
2022-08-31T12:21:56.520Z,56.70
2022-08-31T12:24:49.267Z,56.60
2022-08-31T12:27:32.174Z,55.10
2022-08-31T12:30:28.539Z,54.50
2022-08-31T12:33:15.535Z,53.80
2022-08-31T12:35:43.396Z,53.00
2022-08-31T12:38:17.223Z,53.10
2022-08-31T12:40:51.402Z,52.70
2022-08-31T12:43:29.289Z,52.20
2022-08-31T12:46:02.361Z,52.30
2022-08-31T12:48:45.334Z,52.10
2022-08-31T12:51:38.926Z,51.90
2022-08-31T12:54:16.070Z,51.80
2022-08-31T12:57:07.092Z,52.10
2022-08-31T13:00:01.584Z,51.80
2022-08-31T13:02:30.482Z,51.40
2022-08-31T13:04:57.471Z,50.80
2022-08-31T13:07:31.039Z,50.70
2022-08-31T13:10:09.957Z,50.50
2022-08-31T13:12:38.184Z,50.60
2022-08-31T13:15:09.137Z,50.80
2022-08-31T13:17:40.434Z,50.30
2022-08-31T13:20:07.808Z,49.50
2022-08-31T13:22:42.844Z,48.70
2022-08-31T13:25:36.271Z,48.30
2022-08-31T13:28:13.893Z,47.50
2022-08-31T13:30:41.675Z,46.90
2022-08-31T13:33:31.430Z,46.70
2022-08-31T13:36:09.923Z,45.90
2022-08-31T13:38:50.641Z,45.40
2022-08-31T13:41:27.389Z,45.10
2022-08-31T13:43:59.088Z,44.10
2022-08-31T13:46:43.005Z,44.00
2022-08-31T13:49:24.204Z,43.90
2022-08-31T13:51:51.224Z,42.50
2022-08-31T13:54:32.242Z,42.50
2022-08-31T13:57:19.688Z,42.50
2022-08-31T13:59:46.858Z,42.80
2022-08-31T14:02:16.345Z,42.50
2022-08-31T14:04:49.568Z,42.60
2022-08-31T14:07:26.623Z,42.40
2022-08-31T14:10:25.757Z,42.70
2022-08-31T14:12:59.183Z,43.60
2022-08-31T14:15:36.445Z,43.50
2022-08-31T14:18:32.459Z,43.90
2022-08-31T14:21:26.389Z,44.30
2022-08-31T14:24:03.013Z,44.10
2022-08-31T14:26:32.210Z,43.80
2022-08-31T14:29:10.553Z,43.60
2022-08-31T14:31:43.738Z,43.50
2022-08-31T14:34:22.112Z,43.40
2022-08-31T14:37:02.529Z,43.30
2022-08-31T14:39:33.436Z,43.60
2022-08-31T14:42:25.625Z,43.80
2022-08-31T14:45:00.006Z,44.10
2022-08-31T14:47:28.541Z,44.10
2022-08-31T14:49:58.236Z,44.00
2022-08-31T14:52:25.657Z,44.10
2022-08-31T14:54:53.913Z,44.10
2022-08-31T14:57:25.288Z,44.30
2022-08-31T14:59:59.833Z,44.30
2022-08-31T15:02:33.454Z,44.70
2022-08-31T15:05:06.587Z,44.90
2022-08-31T15:07:35.187Z,45.20
2022-08-31T15:10:02.720Z,45.30
2022-08-31T15:12:29.542Z,45.50
2022-08-31T15:15:02.664Z,45.70
2022-08-31T15:17:33.960Z,46.00
2022-08-31T15:20:03.123Z,46.20
2022-08-31T15:22:31.307Z,46.30
2022-08-31T15:24:58.105Z,46.30
2022-08-31T15:27:28.643Z,46.40
2022-08-31T15:29:59.223Z,46.40
2022-08-31T15:32:26.002Z,46.60
2022-08-31T15:34:58.644Z,46.70
2022-08-31T15:37:30.090Z,46.90
2022-08-31T15:40:00.017Z,47.10
2022-08-31T15:42:26.995Z,47.20
2022-08-31T15:44:56.991Z,47.40
2022-08-31T15:47:54.385Z,47.40
2022-08-31T15:50:23.278Z,47.60
2022-08-31T15:52:51.920Z,47.90
2022-08-31T15:55:21.542Z,48.20
2022-08-31T15:57:48.392Z,48.60
2022-08-31T16:00:19.878Z,48.80
2022-08-31T16:02:47.035Z,48.90
2022-08-31T16:05:13.973Z,49.00
2022-08-31T16:08:11.285Z,49.10
2022-08-31T16:10:44.351Z,49.50
2022-08-31T16:13:11.680Z,49.50
2022-08-31T16:15:38.821Z,49.60
2022-08-31T16:18:05.985Z,49.90
2022-08-31T16:20:34.421Z,50.20
2022-08-31T16:23:01.367Z,50.40
2022-08-31T16:25:30.421Z,50.70
2022-08-31T16:28:14.831Z,51.00
2022-08-31T16:30:43.894Z,51.80
2022-08-31T16:33:12.142Z,51.40
2022-08-31T16:35:39.512Z,51.50
2022-08-31T16:38:07.033Z,51.50
2022-08-31T16:40:34.258Z,51.50
2022-08-31T16:43:01.730Z,51.70
2022-08-31T16:45:29.068Z,51.80
2022-08-31T16:48:15.979Z,51.80
2022-08-31T16:50:47.539Z,51.70
2022-08-31T16:53:16.431Z,51.50
2022-08-31T16:55:44.321Z,51.60
2022-08-31T16:58:13.703Z,51.50
2022-08-31T17:00:43.052Z,51.40
2022-08-31T17:03:09.967Z,51.20
2022-08-31T17:05:36.812Z,51.10
2022-08-31T17:08:03.769Z,51.00
2022-08-31T17:10:30.643Z,51.00
2022-08-31T17:12:57.385Z,50.90
2022-08-31T17:15:44.488Z,50.90
2022-08-31T17:18:12.040Z,50.80
2022-08-31T17:20:42.311Z,50.80
2022-08-31T17:23:10.375Z,50.70
2022-08-31T17:25:37.264Z,50.70
2022-08-31T17:28:10.647Z,50.50
2022-08-31T17:30:39.868Z,50.50
2022-08-31T17:33:07.223Z,50.60
2022-08-31T17:35:34.015Z,50.50
2022-08-31T17:38:00.919Z,50.40
2022-08-31T17:40:27.843Z,50.60
2022-08-31T17:42:59.642Z,50.70
2022-08-31T17:45:27.766Z,50.90
2022-08-31T17:47:54.953Z,51.20
2022-08-31T17:50:21.864Z,51.50
2022-08-31T17:52:48.875Z,51.90
2022-08-31T17:55:15.648Z,52.20
2022-08-31T17:57:42.592Z,52.70
2022-08-31T18:00:10.309Z,53.20
2022-08-31T18:02:37.756Z,53.70
2022-08-31T18:05:09.410Z,54.10
2022-08-31T18:07:39.030Z,54.50
2022-08-31T18:10:06.135Z,54.90
2022-08-31T18:12:34.787Z,55.30
2022-08-31T18:15:02.185Z,55.60
2022-08-31T18:17:29.139Z,56.60
2022-08-31T18:19:56.249Z,56.40
2022-08-31T18:22:23.647Z,56.80
2022-08-31T18:24:50.572Z,57.20
2022-08-31T18:27:17.804Z,57.50
2022-08-31T18:29:44.934Z,57.80
2022-08-31T18:32:12.251Z,58.10
2022-08-31T18:34:40.367Z,58.30
2022-08-31T18:37:07.421Z,58.50
2022-08-31T18:40:07.670Z,58.70
2022-08-31T18:42:56.570Z,58.80
2022-08-31T18:45:24.273Z,58.90
2022-08-31T18:50:45.039Z,59.30
2022-08-31T18:53:28.918Z,59.40
2022-08-31T18:56:05.665Z,59.50
2022-08-31T18:58:33.739Z,59.50
2022-08-31T19:01:00.684Z,59.60
2022-08-31T19:03:27.989Z,59.80
2022-08-31T19:05:58.775Z,59.90
2022-08-31T19:08:29.405Z,60.00
2022-08-31T19:10:58.260Z,60.10
2022-08-31T19:13:28.478Z,60.20
2022-08-31T19:16:00.627Z,60.30
2022-08-31T19:18:28.984Z,60.50
2022-08-31T19:20:55.836Z,60.60
2022-08-31T19:23:23.017Z,60.70
2022-08-31T19:25:50.035Z,60.90
2022-08-31T19:28:16.900Z,61.10
2022-08-31T19:30:48.655Z,61.30
2022-08-31T19:33:19.165Z,61.50
2022-08-31T19:35:46.121Z,61.70
2022-08-31T19:38:14.166Z,61.90
2022-08-31T19:40:41.332Z,62.00
2022-08-31T19:46:09.605Z,62.40
2022-08-31T19:48:47.184Z,62.60
2022-08-31T19:51:15.790Z,62.80
2022-08-31T19:53:45.872Z,62.80
2022-08-31T19:56:21.104Z,62.90
2022-08-31T19:58:49.028Z,63.10
2022-08-31T20:01:25.364Z,63.20
2022-08-31T20:03:53.129Z,63.40
2022-08-31T20:06:20.172Z,63.50
2022-08-31T20:08:47.935Z,63.60
2022-08-31T20:11:20.699Z,63.70
2022-08-31T20:13:48.823Z,63.80
2022-08-31T20:16:15.754Z,63.90
2022-08-31T20:18:48.562Z,64.70
2022-08-31T20:21:17.991Z,64.20
2022-08-31T20:23:45.567Z,64.40
2022-08-31T20:26:12.361Z,64.50
2022-08-31T20:28:40.840Z,64.60
2022-08-31T20:31:10.765Z,64.70
2022-08-31T20:33:37.816Z,64.90
2022-08-31T20:36:22.660Z,65.10
2022-08-31T20:38:56.776Z,65.30
2022-08-31T20:41:24.178Z,65.30
2022-08-31T20:43:50.979Z,65.20
2022-08-31T20:46:36.654Z,65.20
2022-08-31T20:49:21.800Z,65.40
2022-08-31T20:51:49.047Z,65.70
2022-08-31T20:54:17.363Z,65.80
2022-08-31T20:56:44.264Z,66.00
2022-08-31T20:59:11.172Z,66.20
2022-08-31T21:01:38.654Z,66.30
2022-08-31T21:04:12.258Z,66.50
2022-08-31T21:06:40.345Z,66.70
2022-08-31T21:09:08.283Z,66.90
2022-08-31T21:11:37.060Z,67.00
2022-08-31T21:14:04.113Z,67.00
2022-08-31T21:16:32.985Z,67.10
2022-08-31T21:18:59.850Z,67.20
2022-08-31T21:21:31.002Z,67.30
2022-08-31T21:23:58.072Z,67.40
2022-08-31T21:26:27.367Z,67.50
2022-08-31T21:28:54.910Z,67.60
2022-08-31T21:31:29.013Z,67.70
2022-08-31T21:34:00.789Z,67.70
2022-08-31T21:36:27.815Z,68.00
2022-08-31T21:38:56.002Z,68.00
2022-08-31T21:41:24.708Z,68.30
2022-08-31T21:43:51.804Z,68.40
2022-08-31T21:46:23.844Z,68.60
2022-08-31T21:48:51.490Z,68.70
2022-08-31T21:51:19.297Z,69.40
2022-08-31T21:53:47.864Z,69.00
2022-08-31T21:56:15.167Z,69.10
2022-08-31T21:58:42.036Z,69.30
2022-08-31T22:01:13.283Z,69.40
2022-08-31T22:03:40.751Z,69.70
2022-08-31T22:06:26.861Z,69.70
2022-08-31T22:09:00.168Z,70.00
2022-08-31T22:11:28.890Z,70.10
2022-08-31T22:13:56.935Z,70.30
2022-08-31T22:16:25.186Z,70.50
2022-08-31T22:19:02.570Z,70.80
2022-08-31T22:21:32.032Z,71.00
2022-08-31T22:24:00.761Z,71.20
2022-08-31T22:26:29.550Z,71.30
2022-08-31T22:28:56.535Z,71.50
2022-08-31T22:31:25.236Z,72.30
2022-08-31T22:33:52.267Z,71.90
2022-08-31T22:36:31.270Z,72.00
2022-08-31T22:39:08.228Z,72.20
2022-08-31T22:41:37.498Z,72.40
2022-08-31T22:44:06.374Z,72.50
2022-08-31T22:46:33.714Z,72.60
2022-08-31T22:49:00.630Z,72.80
2022-08-31T22:51:27.546Z,73.00
2022-08-31T22:53:54.251Z,73.10
2022-08-31T22:56:22.117Z,73.30
2022-08-31T22:58:49.616Z,73.40
2022-08-31T23:01:21.861Z,73.60
2022-08-31T23:03:51.229Z,73.90
2022-08-31T23:06:22.804Z,74.00
2022-08-31T23:08:50.397Z,74.30
2022-08-31T23:11:19.018Z,74.40
2022-08-31T23:13:55.675Z,74.50
2022-08-31T23:16:33.577Z,74.70
2022-08-31T23:19:02.659Z,75.00
2022-08-31T23:21:31.188Z,75.00
2022-08-31T23:23:59.610Z,75.20
2022-08-31T23:26:27.652Z,75.30
2022-08-31T23:28:58.666Z,75.40
2022-08-31T23:31:27.303Z,75.60
2022-08-31T23:33:54.535Z,75.70
2022-08-31T23:36:26.214Z,75.80
2022-08-31T23:38:56.969Z,75.90
2022-08-31T23:41:26.128Z,76.10
2022-08-31T23:43:53.355Z,76.20
2022-08-31T23:46:22.132Z,76.30
2022-08-31T23:48:49.754Z,76.50
2022-08-31T23:51:19.567Z,76.60
2022-08-31T23:53:48.464Z,76.70
2022-08-31T23:56:15.519Z,76.80
2022-08-31T23:58:44.297Z,76.90
